Time;durP1;ratioP1;P1;durP2;ratioP2;P2;SDS_P1;SDS_P2;PMS_P1;PMS_P2;Temp;Humidity;BMP_temperature;BMP_pressure;BME280_temperature;BME280_humidity;BME280_pressure;Samples;Min_cycle;Max_cycle;Signal;HPM_P1;HPM_P2
2021/10/24 00:00:05;;;;;;;10.30;5.30;;;;;;;-1.25;100.00;93910.59;2099321;28;20490;-85
2021/10/24 00:01:06;;;;;;;5.47;4.32;;;;;;;-1.35;100.00;93912.53;2107282;28;20050;-86
2021/10/24 00:02:07;;;;;;;5.70;4.70;;;;;;;-1.35;100.00;93909.16;2090993;28;20029;-86
2021/10/24 00:03:08;;;;;;;6.60;4.35;;;;;;;-1.31;100.00;93902.19;2104625;28;20549;-86
2021/10/24 00:04:09;;;;;;;4.80;4.35;;;;;;;-1.34;100.00;93906.19;2107478;28;20400;-85
2021/10/24 00:05:10;;;;;;;4.93;4.38;;;;;;;-1.33;100.00;93907.72;2101919;28;20032;-86
2021/10/24 00:06:11;;;;;;;5.72;4.57;;;;;;;-1.31;100.00;93904.78;2099325;28;20028;-84
2021/10/24 00:07:13;;;;;;;5.60;4.40;;;;;;;-1.32;100.00;93893.53;2091034;28;20111;-86
2021/10/24 00:08:14;;;;;;;7.38;4.38;;;;;;;-1.42;100.00;93906.25;2090803;28;20040;-87
2021/10/24 00:09:16;;;;;;;4.97;4.30;;;;;;;-1.50;100.00;93899.22;2089050;28;20029;-86
2021/10/24 00:10:17;;;;;;;5.22;4.53;;;;;;;-1.43;100.00;93902.88;2091486;28;20036;-86
2021/10/24 00:11:19;;;;;;;7.03;4.95;;;;;;;-1.41;100.00;93899.91;2099036;28;20103;-84
2021/10/24 00:12:20;;;;;;;7.30;5.03;;;;;;;-1.42;100.00;93899.16;2090946;28;20020;-85
2021/10/24 00:13:21;;;;;;;7.68;4.80;;;;;;;-1.46;100.00;93894.88;2107619;28;20024;-86
2021/10/24 00:14:22;;;;;;;7.32;5.05;;;;;;;-1.41;100.00;93905.16;2099174;28;20032;-85
2021/10/24 00:15:23;;;;;;;7.78;5.07;;;;;;;-1.40;100.00;93891.00;2090653;28;20029;-86
2021/10/24 00:16:25;;;;;;;7.22;5.60;;;;;;;-1.45;100.00;93893.78;2099086;28;20107;-85
2021/10/24 00:17:27;;;;;;;8.85;5.10;;;;;;;-1.40;100.00;93898.84;2091216;28;20112;-85
2021/10/24 00:18:27;;;;;;;7.10;5.50;;;;;;;-1.44;100.00;93892.72;2095944;28;20485;-87
2021/10/24 00:19:28;;;;;;;6.10;4.97;;;;;;;-1.39;100.00;93892.53;2116011;28;20024;-86
2021/10/24 00:20:30;;;;;;;10.43;5.68;;;;;;;-1.38;100.00;93899.28;2115412;28;20065;-86
2021/10/24 00:21:31;;;;;;;7.07;5.72;;;;;;;-1.31;100.00;93896.94;2099398;28;20036;-84
2021/10/24 00:22:32;;;;;;;6.75;5.93;;;;;;;-1.37;100.00;93895.56;2096216;28;20060;-86
2021/10/24 00:23:33;;;;;;;8.90;5.63;;;;;;;-1.37;100.00;93895.56;2099182;28;20035;-86
2021/10/24 00:24:34;;;;;;;8.63;5.90;;;;;;;-1.32;100.00;93900.63;2107373;28;20505;-85
2021/10/24 00:25:35;;;;;;;11.75;5.53;;;;;;;-1.43;100.00;93900.25;2107517;28;20031;-88
2021/10/24 00:26:36;;;;;;;8.45;5.32;;;;;;;-1.43;100.00;93902.13;2099361;28;20031;-87
2021/10/24 00:27:37;;;;;;;8.20;5.63;;;;;;;-1.33;100.00;93902.47;2098877;28;20028;-87
2021/10/24 00:28:38;;;;;;;8.27;5.90;;;;;;;-1.30;100.00;93895.84;2091000;28;20025;-88
2021/10/24 00:29:39;;;;;;;7.38;5.13;;;;;;;-1.19;100.00;93896.19;2090767;28;20057;-86
2021/10/24 00:30:40;;;;;;;9.13;5.55;;;;;;;-1.27;100.00;93893.34;2098708;28;20028;-85
2021/10/24 00:31:41;;;;;;;6.70;4.82;;;;;;;-1.30;100.00;93898.47;2090492;28;20029;-87
2021/10/24 00:32:42;;;;;;;5.95;4.70;;;;;;;-1.37;100.00;93898.19;2090992;28;20116;-87
2021/10/24 00:33:43;;;;;;;5.85;5.25;;;;;;;-1.32;100.00;93892.75;2099033;28;20083;-87
2021/10/24 00:34:44;;;;;;;6.63;5.07;;;;;;;-1.42;100.00;93895.78;2098714;28;20111;-87
2021/10/24 00:35:46;;;;;;;6.45;5.40;;;;;;;-1.29;100.00;93889.50;2082337;28;20116;-86
2021/10/24 00:36:47;;;;;;;5.28;4.78;;;;;;;-1.31;100.00;93894.31;2094297;28;20035;-86
2021/10/24 00:37:49;;;;;;;7.53;4.70;;;;;;;-1.30;100.00;93901.09;2090643;28;20052;-87
2021/10/24 00:38:50;;;;;;;7.35;4.90;;;;;;;-1.38;100.00;93899.28;2103056;28;20488;-86
2021/10/24 00:39:51;;;;;;;5.93;4.30;;;;;;;-1.36;100.00;93897.09;2098731;28;20071;-85
2021/10/24 00:40:52;;;;;;;8.20;5.05;;;;;;;-1.22;100.00;93887.13;2094115;28;20242;-86
2021/10/24 00:41:54;;;;;;;5.85;4.55;;;;;;;-1.41;100.00;93899.91;2107468;28;20073;-87
2021/10/24 00:42:55;;;;;;;8.13;4.75;;;;;;;-1.57;100.00;93902.38;2106964;28;20507;-85
2021/10/24 00:43:58;;;;;;;8.50;4.95;;;;;;;-1.52;100.00;93902.94;2099158;28;20029;-87
2021/10/24 00:44:59;;;;;;;6.03;4.70;;;;;;;-1.56;100.00;93901.28;2099345;28;20032;-87
2021/10/24 00:46:00;;;;;;;5.95;5.05;;;;;;;-1.57;100.00;93899.75;2107287;28;20024;-86
2021/10/24 00:47:05;;;;;;;7.88;4.80;;;;;;;-1.40;100.00;93891.75;2111631;28;20028;-86
2021/10/24 00:48:06;;;;;;;5.18;4.50;;;;;;;-1.49;100.00;93892.88;2106640;28;20024;-87
2021/10/24 00:49:08;;;;;;;5.47;4.57;;;;;;;-1.38;100.00;93900.06;2098673;28;20046;-86
2021/10/24 00:50:09;;;;;;;6.05;4.43;;;;;;;-1.44;100.00;93900.59;2091000;28;20036;-87
2021/10/24 00:51:10;;;;;;;5.82;4.38;;;;;;;-1.50;100.00;93884.25;2094876;28;20079;-88
2021/10/24 00:52:11;;;;;;;8.55;5.15;;;;;;;-1.50;100.00;93889.50;2107471;28;20119;-88
2021/10/24 00:53:14;;;;;;;6.43;5.38;;;;;;;-1.59;100.00;93899.28;2107478;28;20171;-86
2021/10/24 00:54:18;;;;;;;7.32;5.22;;;;;;;-1.55;100.00;93895.72;2099191;28;20501;-87
2021/10/24 00:55:22;;;;;;;5.20;4.43;;;;;;;-1.54;100.00;93894.63;2091191;28;20103;-86
2021/10/24 00:56:23;;;;;;;4.78;4.38;;;;;;;-1.25;100.00;93879.13;2085093;28;20029;-89
2021/10/24 00:57:24;;;;;;;5.60;4.35;;;;;;;-1.35;100.00;93886.31;2098800;28;20052;-87
2021/10/24 00:58:25;;;;;;;9.35;4.93;;;;;;;-1.32;100.00;93890.13;2098785;28;20123;-86
2021/10/24 00:59:27;;;;;;;5.50;4.47;;;;;;;-1.45;100.00;93885.91;2090905;28;20476;-87
2021/10/24 01:00:28;;;;;;;5.00;4.50;;;;;;;-1.57;100.00;93895.28;2107331;28;20032;-87
2021/10/24 01:01:29;;;;;;;6.95;4.95;;;;;;;-1.46;100.00;93895.63;2098697;28;20105;-86
2021/10/24 01:02:30;;;;;;;7.88;5.13;;;;;;;-1.65;100.00;93893.47;2090717;28;20055;-87
2021/10/24 01:03:31;;;;;;;7.80;4.78;;;;;;;-1.59;100.00;93884.31;2090668;28;20028;-86
2021/10/24 01:04:32;;;;;;;9.25;5.28;;;;;;;-1.57;100.00;93884.03;2100888;28;20035;-86
2021/10/24 01:05:34;;;;;;;13.68;4.90;;;;;;;-1.57;100.00;93881.41;2105619;28;20088;-86
2021/10/24 01:06:38;;;;;;;8.93;4.80;;;;;;;-1.63;100.00;93880.81;2110044;28;20023;-86
2021/10/24 01:07:43;;;;;;;8.32;4.75;;;;;;;-1.55;100.00;93887.06;2107518;28;20024;-86
2021/10/24 01:08:44;;;;;;;7.80;4.90;;;;;;;-1.64;100.00;93881.91;2099229;28;20032;-86
2021/10/24 01:09:46;;;;;;;9.07;5.10;;;;;;;-1.62;100.00;93876.34;2092064;28;20028;-86
2021/10/24 01:10:47;;;;;;;7.53;5.18;;;;;;;-1.66;100.00;93886.69;2090710;28;20494;-87
2021/10/24 01:11:49;;;;;;;6.07;4.63;;;;;;;-1.56;100.00;93882.94;2101369;28;20032;-87
2021/10/24 01:12:51;;;;;;;6.43;4.93;;;;;;;-1.72;100.00;93877.47;2102651;28;20074;-86
2021/10/24 01:13:51;;;;;;;6.30;4.95;;;;;;;-1.75;100.00;93880.75;2090660;28;20474;-85
2021/10/24 01:14:52;;;;;;;5.28;4.32;;;;;;;-1.69;100.00;93884.72;2095417;28;20024;-86
2021/10/24 01:16:17;;;;;;;6.63;4.85;;;;;;;-1.59;100.00;93884.31;2098815;28;20032;-87
2021/10/24 01:17:18;;;;;;;8.05;5.10;;;;;;;-1.71;100.00;93888.72;2096968;28;20060;-86
2021/10/24 01:18:19;;;;;;;6.55;4.65;;;;;;;-1.65;100.00;93887.47;2091106;28;20033;-88
2021/10/24 01:19:21;;;;;;;8.57;4.85;;;;;;;-1.68;100.00;93885.47;2098951;28;20032;-89
2021/10/24 01:20:25;;;;;;;6.53;5.50;;;;;;;-1.66;100.00;93876.22;2115361;28;20031;-87
2021/10/24 01:21:26;;;;;;;7.15;4.78;;;;;;;-1.66;100.00;93883.31;2107460;28;20023;-86
2021/10/24 01:22:27;;;;;;;6.32;4.57;;;;;;;-1.69;100.00;93881.31;2099184;28;20479;-85
2021/10/24 01:23:28;;;;;;;7.22;4.72;;;;;;;-1.68;100.00;93888.84;2094946;28;20045;-88
2021/10/24 01:24:29;;;;;;;6.72;4.80;;;;;;;-1.61;100.00;93883.88;2110480;28;20523;-88
2021/10/24 01:25:30;;;;;;;10.90;5.20;;;;;;;-1.61;100.00;93872.63;2116377;28;20035;-86
2021/10/24 01:26:35;;;;;;;5.70;4.43;;;;;;;-1.64;100.00;93879.28;2102403;28;20058;-88
2021/10/24 01:27:37;;;;;;;7.00;4.82;;;;;;;-1.65;100.00;93875.13;2102397;28;20039;-86
2021/10/24 01:28:38;;;;;;;7.50;4.80;;;;;;;-1.72;100.00;93866.22;2090581;28;20035;-86
2021/10/24 01:29:39;;;;;;;4.47;4.07;;;;;;;-1.81;100.00;93867.06;2082349;28;20110;-86
2021/10/24 01:30:40;;;;;;;7.03;4.70;;;;;;;-1.73;100.00;93862.09;2098735;28;20028;-87
2021/10/24 01:31:41;;;;;;;6.13;4.63;;;;;;;-1.81;100.00;93868.91;2098836;28;20027;-85
2021/10/24 01:32:42;;;;;;;6.38;5.00;;;;;;;-1.81;100.00;93861.06;2106912;28;20086;-87
2021/10/24 01:33:44;;;;;;;5.78;4.65;;;;;;;-1.74;100.00;93868.41;2107305;28;20502;-86
2021/10/24 01:34:47;;;;;;;5.85;4.88;;;;;;;-1.81;100.00;93864.44;2106866;28;20464;-87
2021/10/24 01:35:52;;;;;;;7.57;4.35;;;;;;;-1.78;100.00;93863.81;2090532;28;20449;-87
2021/10/24 01:36:53;;;;;;;5.07;4.57;;;;;;;-1.72;100.00;93858.38;2090843;28;20143;-88
2021/10/24 01:37:56;;;;;;;8.10;4.13;;;;;;;-1.75;100.00;93861.66;2090818;28;20472;-86
2021/10/24 01:38:57;;;;;;;4.65;3.97;;;;;;;-1.88;100.00;93860.81;2115198;28;20051;-86
2021/10/24 01:39:59;;;;;;;5.10;4.00;;;;;;;-1.74;100.00;93856.09;2093016;28;20028;-86
2021/10/24 01:41:02;;;;;;;6.93;4.10;;;;;;;-1.68;100.00;93862.66;2098759;28;20025;-87
2021/10/24 01:42:03;;;;;;;8.07;4.47;;;;;;;-1.69;100.00;93860.38;2090797;28;20024;-87
2021/10/24 01:43:04;;;;;;;5.70;4.50;;;;;;;-1.81;100.00;93858.44;2090561;28;20387;-88
2021/10/24 01:44:05;;;;;;;9.45;5.18;;;;;;;-1.87;100.00;93857.88;2098307;28;20058;-86
2021/10/24 01:45:09;;;;;;;6.80;4.25;;;;;;;-1.89;100.00;93860.03;2115245;28;20023;-87
2021/10/24 01:46:10;;;;;;;10.50;4.80;;;;;;;-1.94;100.00;93854.97;2107885;28;20516;-87
2021/10/24 01:47:11;;;;;;;6.88;4.30;;;;;;;-1.90;100.00;93850.63;2106991;28;20110;-86
2021/10/24 01:48:13;;;;;;;6.18;4.57;;;;;;;-1.83;100.00;93855.38;2107061;28;20393;-86
2021/10/24 01:49:14;;;;;;;8.43;4.28;;;;;;;-1.94;100.00;93851.59;2098829;28;20095;-86
2021/10/24 01:50:15;;;;;;;5.28;4.40;;;;;;;-1.88;100.00;93855.56;2099291;28;20028;-87
2021/10/24 01:51:16;;;;;;;7.78;4.35;;;;;;;-1.81;100.00;93845.34;2102655;28;20054;-88
2021/10/24 01:52:17;;;;;;;5.68;4.20;;;;;;;-1.94;100.00;93862.06;2098807;28;20040;-87
2021/10/24 01:53:21;;;;;;;5.88;4.22;;;;;;;-1.95;100.00;93856.06;2098122;28;20024;-87
2021/10/24 01:54:22;;;;;;;8.55;5.00;;;;;;;-1.89;100.00;93849.56;2105886;28;20028;-87
2021/10/24 01:55:23;;;;;;;8.10;4.55;;;;;;;-1.94;100.00;93852.34;2090150;28;20379;-87
2021/10/24 01:56:23;;;;;;;4.95;4.00;;;;;;;-1.87;100.00;93849.25;2090811;28;20031;-86
2021/10/24 01:57:24;;;;;;;6.10;4.20;;;;;;;-1.82;100.00;93846.44;2106785;28;20028;-85
2021/10/24 01:58:27;;;;;;;6.95;4.85;;;;;;;-1.93;100.00;93847.88;2098436;28;20049;-87
2021/10/24 01:59:27;;;;;;;6.50;3.88;;;;;;;-1.85;100.00;93852.28;2106740;28;20123;-87
2021/10/24 02:00:29;;;;;;;4.63;4.13;;;;;;;-1.91;100.00;93850.97;2105965;28;20024;-86
2021/10/24 02:01:30;;;;;;;5.80;4.28;;;;;;;-1.91;100.00;93841.25;2098419;28;20451;-87
2021/10/24 02:02:32;;;;;;;4.50;3.72;;;;;;;-1.97;100.00;93841.75;2089771;28;20025;-86
2021/10/24 02:03:36;;;;;;;5.45;4.07;;;;;;;-1.85;100.00;93852.28;2098833;28;20024;-88
2021/10/24 02:04:37;;;;;;;4.88;3.90;;;;;;;-1.95;100.00;93850.06;2099714;28;20057;-87
2021/10/24 02:05:39;;;;;;;6.93;4.50;;;;;;;-2.03;100.00;93849.78;2106591;28;20062;-86
2021/10/24 02:18:32;;;;;;;;;;;;;;;-1.92;100.00;93841.56;2130833;27;20533;-88
2021/10/24 02:19:33;;;;;;;7.22;3.92;;;;;;;-1.99;100.00;93843.91;2121562;28;19950;-91
2021/10/24 02:20:35;;;;;;;5.18;4.15;;;;;;;-1.99;100.00;93842.06;2104419;28;20498;-92
2021/10/24 02:21:36;;;;;;;7.53;4.57;;;;;;;-2.06;100.00;93837.34;2105258;28;20439;-88
2021/10/24 02:22:38;;;;;;;4.53;4.13;;;;;;;-2.05;100.00;93838.09;2104595;28;20054;-89
2021/10/24 02:23:39;;;;;;;5.95;4.05;;;;;;;-2.01;100.00;93841.63;2113487;28;20705;-89
2021/10/24 02:24:41;;;;;;;7.25;3.80;;;;;;;-2.22;100.00;93844.22;2118247;27;20027;-89
2021/10/24 02:25:42;;;;;;;7.38;4.25;;;;;;;-2.06;100.00;93839.19;2105720;28;20465;-91
2021/10/24 02:26:43;;;;;;;6.35;4.00;;;;;;;-2.06;100.00;93841.81;2093266;28;20025;-91
2021/10/24 02:27:45;;;;;;;5.95;3.72;;;;;;;-2.05;100.00;93833.63;2087954;28;20029;-91
2021/10/24 02:28:46;;;;;;;4.93;4.38;;;;;;;-2.10;100.00;93836.44;2096094;28;20020;-90
2021/10/24 02:29:47;;;;;;;4.55;3.88;;;;;;;-2.12;100.00;93835.22;2104840;28;20111;-90
2021/10/24 02:30:48;;;;;;;5.28;4.05;;;;;;;-2.18;100.00;93833.88;2110043;28;20076;-90
2021/10/24 02:31:49;;;;;;;5.97;4.22;;;;;;;-2.16;100.00;93829.06;2104624;28;20052;-89
2021/10/24 02:32:50;;;;;;;5.28;3.65;;;;;;;-2.04;100.00;93827.31;2091515;28;20025;-90
2021/10/24 02:33:51;;;;;;;5.95;4.05;;;;;;;-2.13;100.00;93823.97;2088528;28;20031;-92
2021/10/24 02:34:52;;;;;;;6.07;4.05;;;;;;;-2.13;100.00;93829.22;2096476;28;20052;-90
2021/10/24 02:35:53;;;;;;;6.45;4.05;;;;;;;-2.18;100.00;93826.78;2096364;28;20031;-91
2021/10/24 02:36:54;;;;;;;4.50;4.10;;;;;;;-2.17;100.00;93833.53;2096494;28;20035;-89
2021/10/24 02:37:55;;;;;;;6.05;4.03;;;;;;;-2.16;100.00;93832.47;2095990;28;20029;-91
2021/10/24 02:38:56;;;;;;;5.30;4.07;;;;;;;-2.08;100.00;93831.63;2096952;28;20024;-90
2021/10/24 02:39:57;;;;;;;5.53;4.25;;;;;;;-1.99;100.00;93828.19;2096546;28;20052;-89
2021/10/24 02:40:58;;;;;;;6.75;4.35;;;;;;;-2.05;100.00;93830.25;2088093;28;20025;-91
2021/10/24 02:41:59;;;;;;;4.45;3.80;;;;;;;-2.15;100.00;93833.22;2088183;28;20040;-91
2021/10/24 02:43:00;;;;;;;4.10;3.65;;;;;;;-2.10;100.00;93825.22;2092757;28;20039;-91
2021/10/24 02:44:01;;;;;;;5.68;4.00;;;;;;;-2.20;100.00;93822.94;2096304;28;20382;-89
2021/10/24 02:45:03;;;;;;;4.05;3.63;;;;;;;-2.12;100.00;93824.75;2096458;28;20032;-91
2021/10/24 02:46:04;;;;;;;7.15;4.65;;;;;;;-2.17;100.00;93825.69;2088335;28;20491;-90
2021/10/24 02:47:05;;;;;;;6.90;4.13;;;;;;;-2.13;100.00;93821.34;2100303;28;20066;-89
2021/10/24 02:48:07;;;;;;;6.65;4.28;;;;;;;-2.23;100.00;93820.97;2096323;28;20021;-91
2021/10/24 02:49:08;;;;;;;6.10;4.18;;;;;;;-2.23;100.00;93813.88;2100800;28;20051;-89
2021/10/24 02:50:10;;;;;;;8.32;4.63;;;;;;;-2.05;100.00;93812.69;2104700;28;20028;-91
2021/10/24 02:51:11;;;;;;;3.85;3.45;;;;;;;-2.30;100.00;93830.06;2104512;28;20436;-89
2021/10/24 02:52:13;;;;;;;5.72;4.05;;;;;;;-2.26;100.00;93814.50;2104663;28;20028;-89
2021/10/24 02:53:14;;;;;;;4.30;3.83;;;;;;;-2.10;100.00;93815.50;2099640;28;20448;-91
2021/10/24 02:54:16;;;;;;;5.05;4.20;;;;;;;-2.08;100.00;93817.78;2096149;28;20071;-91
2021/10/24 02:55:17;;;;;;;4.93;3.67;;;;;;;-2.16;100.00;93819.38;2100593;28;20036;-91
2021/10/24 02:56:17;;;;;;;4.90;3.88;;;;;;;-2.12;100.00;93815.03;2105479;28;20509;-91
2021/10/24 02:57:18;;;;;;;7.15;4.00;;;;;;;-2.15;100.00;93815.69;2092096;28;20029;-90
2021/10/24 02:58:19;;;;;;;5.03;3.78;;;;;;;-2.19;100.00;93814.03;2096439;28;20139;-90
2021/10/24 02:59:21;;;;;;;4.15;3.75;;;;;;;-2.21;100.00;93811.69;2096078;28;20495;-90
2021/10/24 03:00:22;;;;;;;5.82;3.78;;;;;;;-2.29;100.00;93815.91;2088024;28;20116;-90
2021/10/24 03:01:23;;;;;;;4.50;4.05;;;;;;;-2.26;100.00;93819.75;2091777;28;20029;-91
2021/10/24 03:02:24;;;;;;;5.15;4.00;;;;;;;-2.15;100.00;93807.03;2095881;28;20025;-91
2021/10/24 03:03:26;;;;;;;5.18;4.18;;;;;;;-2.29;100.00;93802.81;2091788;28;20024;-92
2021/10/24 03:04:28;;;;;;;4.07;3.67;;;;;;;-2.28;100.00;93806.22;2088365;28;20039;-90
2021/10/24 03:05:29;;;;;;;6.22;4.00;;;;;;;-2.25;100.00;93802.19;2092136;28;20021;-91
2021/10/24 03:06:31;;;;;;;8.90;4.32;;;;;;;-2.26;100.00;93800.66;2096214;28;20024;-92
2021/10/24 03:07:32;;;;;;;5.50;3.50;;;;;;;-2.34;100.00;93797.75;2091831;28;20028;-90
2021/10/24 03:08:33;;;;;;;4.55;4.03;;;;;;;-2.18;100.00;93800.59;2087919;28;20029;-93
2021/10/24 03:09:34;;;;;;;6.25;4.25;;;;;;;-2.34;100.00;93802.22;2100016;28;20059;-89
2021/10/24 03:10:35;;;;;;;4.20;3.80;;;;;;;-2.27;100.00;93802.50;2096041;28;20055;-90
2021/10/24 03:11:36;;;;;;;7.57;3.92;;;;;;;-2.21;100.00;93803.84;2091516;28;20031;-90
2021/10/24 03:12:37;;;;;;;5.60;4.10;;;;;;;-2.22;100.00;93807.56;2095983;28;20471;-90
2021/10/24 03:13:38;;;;;;;6.50;4.22;;;;;;;-2.24;100.00;93801.84;2096119;28;20032;-90
2021/10/24 03:14:39;;;;;;;8.75;4.78;;;;;;;-2.29;100.00;93807.28;2096060;28;20036;-91
2021/10/24 03:15:41;;;;;;;5.47;4.20;;;;;;;-2.29;100.00;93802.03;2096424;28;20051;-92
2021/10/24 03:16:42;;;;;;;8.13;4.00;;;;;;;-2.28;100.00;93803.59;2087994;28;20033;-90
2021/10/24 03:17:43;;;;;;;5.20;4.10;;;;;;;-2.38;100.00;93796.09;2095868;28;20087;-90
2021/10/24 03:18:44;;;;;;;4.80;3.83;;;;;;;-2.44;100.00;93800.00;2087355;28;20475;-91
2021/10/24 03:19:45;;;;;;;7.00;4.07;;;;;;;-2.39;100.00;93799.81;2098370;28;20029;-90
2021/10/24 03:20:47;;;;;;;6.15;4.35;;;;;;;-2.35;100.00;93800.72;2090736;28;20032;-88
2021/10/24 03:21:48;;;;;;;5.68;4.07;;;;;;;-2.40;100.00;93800.88;2087649;28;20061;-90
2021/10/24 03:22:49;;;;;;;5.60;4.10;;;;;;;-2.39;100.00;93808.41;2082291;28;20025;-90
2021/10/24 03:23:50;;;;;;;7.97;4.35;;;;;;;-2.28;100.00;93803.59;2093338;28;20125;-91
2021/10/24 03:24:51;;;;;;;5.95;4.10;;;;;;;-2.48;100.00;93801.69;2098920;28;20029;-91
2021/10/24 03:25:52;;;;;;;4.57;4.05;;;;;;;-2.53;100.00;93810.50;2104075;28;20024;-90
2021/10/24 03:26:53;;;;;;;3.78;3.47;;;;;;;-2.53;100.00;93805.28;2107175;28;20541;-90
2021/10/24 03:27:54;;;;;;;5.10;3.90;;;;;;;-2.52;100.00;93812.03;2090265;28;20020;-91
2021/10/24 03:28:55;;;;;;;7.57;4.50;;;;;;;-2.41;100.00;93802.75;2082500;28;20029;-89
2021/10/24 03:29:57;;;;;;;7.32;4.28;;;;;;;-2.41;100.00;93805.38;2082273;28;20021;-91
2021/10/24 03:30:58;;;;;;;4.45;4.00;;;;;;;-2.38;100.00;93806.56;2082709;28;20045;-90
2021/10/24 03:31:59;;;;;;;5.30;3.78;;;;;;;-2.38;100.00;93807.31;2081940;28;20052;-89
2021/10/24 03:33:00;;;;;;;4.93;3.50;;;;;;;-2.38;100.00;93809.94;2088239;28;20067;-90
2021/10/24 03:34:02;;;;;;;7.20;4.47;;;;;;;-2.40;100.00;93806.88;2089429;28;20375;-91
2021/10/24 03:35:03;;;;;;;5.05;3.92;;;;;;;-2.53;100.00;93798.19;2094026;28;20021;-89
2021/10/24 03:36:05;;;;;;;12.27;4.10;;;;;;;-2.51;100.00;93805.69;2076339;28;20022;-89
2021/10/24 03:37:06;;;;;;;7.07;4.35;;;;;;;-2.50;100.00;93811.69;2082308;28;20024;-90
2021/10/24 03:38:07;;;;;;;4.68;3.88;;;;;;;-2.48;100.00;93805.09;2089362;28;20636;-90
2021/10/24 03:39:08;;;;;;;5.25;3.67;;;;;;;-2.55;100.00;93813.44;2098699;28;20048;-91
2021/10/24 03:40:10;;;;;;;6.55;4.15;;;;;;;-2.47;100.00;93808.47;2090383;28;20017;-89
2021/10/24 03:41:14;;;;;;;7.07;4.07;;;;;;;-2.41;100.00;93802.75;2088934;28;20036;-90
2021/10/24 03:42:15;;;;;;;7.63;4.28;;;;;;;-2.44;100.00;93807.84;2088105;28;20025;-88
2021/10/24 03:43:16;;;;;;;5.10;4.40;;;;;;;-2.50;100.00;93811.69;2089602;28;20036;-89
2021/10/24 03:44:17;;;;;;;6.00;4.35;;;;;;;-2.46;100.00;93810.00;2092406;28;20128;-90
2021/10/24 03:45:18;;;;;;;6.63;4.60;;;;;;;-2.50;100.00;93811.69;2090986;28;20040;-90
2021/10/24 03:46:19;;;;;;;7.45;4.13;;;;;;;-2.50;100.00;93809.09;2076325;28;20026;-91
2021/10/24 03:47:20;;;;;;;8.05;4.43;;;;;;;-2.45;100.00;93807.06;2082245;28;20063;-90
2021/10/24 03:48:21;;;;;;;4.65;3.90;;;;;;;-2.41;100.00;93802.75;2095886;28;20020;-91
2021/10/24 03:49:22;;;;;;;8.13;4.45;;;;;;;-2.41;100.00;93804.59;2089883;28;20032;-90
2021/10/24 03:50:23;;;;;;;7.72;4.50;;;;;;;-2.47;100.00;93796.13;2092314;28;20043;-90
2021/10/24 03:51:25;;;;;;;4.90;4.18;;;;;;;-2.47;100.00;93811.09;2089642;28;20033;-90
2021/10/24 03:52:26;;;;;;;5.50;4.20;;;;;;;-2.37;100.00;93803.66;2075560;28;20026;-91
2021/10/24 03:53:27;;;;;;;4.53;4.13;;;;;;;-2.46;100.00;93800.28;2082087;28;20032;-90
2021/10/24 03:54:27;;;;;;;4.40;3.95;;;;;;;-2.51;100.00;93807.56;2081607;28;20057;-91
2021/10/24 03:55:28;;;;;;;8.05;4.38;;;;;;;-2.48;100.00;93809.56;2090447;28;20403;-90
2021/10/24 03:56:29;;;;;;;8.00;4.53;;;;;;;-2.48;100.00;93801.69;2084254;28;20168;-89
2021/10/24 03:57:31;;;;;;;5.38;4.20;;;;;;;-2.64;100.00;93815.31;2082257;28;20128;-89
2021/10/24 03:58:32;;;;;;;4.78;4.22;;;;;;;-2.60;100.00;93813.59;2091391;28;20582;-89
2021/10/24 03:59:33;;;;;;;5.13;4.57;;;;;;;-2.51;100.00;93810.19;2082255;28;20021;-91
2021/10/24 04:00:34;;;;;;;7.68;4.28;;;;;;;-2.53;100.00;93808.66;2075206;28;20037;-90
2021/10/24 04:01:35;;;;;;;7.45;4.50;;;;;;;-2.54;100.00;93807.13;2081939;28;20026;-92
2021/10/24 04:02:58;;;;;;;6.25;4.38;;;;;;;-2.54;100.00;93804.50;2081815;28;20484;-91
2021/10/24 04:04:01;;;;;;;6.50;4.10;;;;;;;-2.51;100.00;93812.78;2101497;28;20465;-89
2021/10/24 04:05:04;;;;;;;5.38;4.22;;;;;;;-2.51;100.00;93804.94;2085646;28;20021;-89
2021/10/24 04:06:05;;;;;;;5.93;4.32;;;;;;;-2.56;100.00;93813.75;2090436;28;20025;-90
2021/10/24 04:07:07;;;;;;;6.65;4.20;;;;;;;-2.65;100.00;93816.41;2090035;28;20020;-89
2021/10/24 04:08:07;;;;;;;5.80;4.10;;;;;;;-2.56;100.00;93811.88;2090273;28;20029;-90
2021/10/24 04:09:09;;;;;;;5.65;3.60;;;;;;;-2.57;100.00;93812.97;2081766;28;20455;-89
2021/10/24 04:10:10;;;;;;;6.05;4.00;;;;;;;-2.54;100.00;93812.34;2082394;28;20025;-90
2021/10/24 04:11:11;;;;;;;4.95;3.95;;;;;;;-2.53;100.00;93815.72;2090251;28;20029;-90
2021/10/24 04:12:12;;;;;;;6.25;4.07;;;;;;;-2.42;100.00;93818.75;2090056;28;20109;-91
2021/10/24 04:13:13;;;;;;;5.82;4.15;;;;;;;-2.65;100.00;93816.41;2082223;28;20030;-91
2021/10/24 04:14:15;;;;;;;6.20;4.07;;;;;;;-2.57;100.00;93817.44;2089926;28;20841;-91
2021/10/24 04:15:17;;;;;;;4.00;3.58;;;;;;;-2.64;100.00;93814.53;2094270;28;20061;-90
2021/10/24 04:16:18;;;;;;;7.40;4.35;;;;;;;-2.62;100.00;93810.53;2082049;28;20033;-90
2021/10/24 04:17:19;;;;;;;5.93;4.45;;;;;;;-2.65;100.00;93813.78;2078168;28;20026;-89
2021/10/24 04:18:20;;;;;;;9.93;4.38;;;;;;;-2.79;100.00;93816.63;2087955;28;20072;-90
2021/10/24 04:19:21;;;;;;;6.57;4.25;;;;;;;-2.86;100.00;93812.94;2081981;28;20057;-90
2021/10/24 04:20:23;;;;;;;4.93;3.65;;;;;;;-2.75;100.00;93818.59;2085441;28;20029;-92
2021/10/24 04:21:23;;;;;;;7.57;4.38;;;;;;;-2.73;100.00;93814.59;2098275;28;20163;-91
2021/10/24 04:22:25;;;;;;;5.32;4.00;;;;;;;-2.63;100.00;93816.88;2085511;28;20029;-93
2021/10/24 04:23:26;;;;;;;7.57;3.88;;;;;;;-2.72;100.00;93812.72;2090269;28;20033;-89
2021/10/24 04:24:27;;;;;;;5.10;3.85;;;;;;;-2.70;100.00;93811.34;2081400;28;20029;-91
2021/10/24 04:25:28;;;;;;;4.80;4.30;;;;;;;-2.65;100.00;93808.53;2089966;28;20024;-90
2021/10/24 04:26:29;;;;;;;5.93;3.95;;;;;;;-2.65;100.00;93813.03;2088632;28;20111;-89
2021/10/24 04:27:30;;;;;;;7.78;3.92;;;;;;;-2.72;100.00;93807.50;2081393;28;20037;-90
2021/10/24 04:28:31;;;;;;;6.75;4.13;;;;;;;-2.67;100.00;93813.34;2098512;28;20398;-89
2021/10/24 04:29:32;;;;;;;7.28;3.78;;;;;;;-2.61;100.00;93806.84;2083962;28;20029;-91
2021/10/24 04:30:33;;;;;;;5.72;3.90;;;;;;;-2.60;100.00;93810.22;2081203;28;20064;-92
2021/10/24 04:31:34;;;;;;;7.40;3.63;;;;;;;-2.72;100.00;93808.28;2081242;28;20057;-91
2021/10/24 04:32:37;;;;;;;6.15;4.03;;;;;;;-2.76;100.00;93804.00;2090385;28;20087;-91
2021/10/24 04:33:38;;;;;;;5.95;3.90;;;;;;;-2.72;100.00;93804.88;2087470;28;20029;-91
2021/10/24 04:34:39;;;;;;;6.28;4.20;;;;;;;-2.78;100.00;93804.28;2081942;28;20472;-89
2021/10/24 04:35:40;;;;;;;5.70;4.28;;;;;;;-2.83;100.00;93809.72;2097966;28;20478;-91
2021/10/24 04:36:41;;;;;;;4.18;3.58;;;;;;;-2.78;100.00;93814.75;2097948;28;20513;-90
2021/10/24 04:37:43;;;;;;;5.63;3.70;;;;;;;-2.78;100.00;93805.06;2082589;28;20036;-90
2021/10/24 04:38:44;;;;;;;6.75;4.13;;;;;;;-2.76;100.00;93811.84;2098347;28;20020;-91
2021/10/24 04:39:45;;;;;;;7.15;4.13;;;;;;;-2.81;100.00;93803.09;2087395;28;20410;-91
2021/10/24 04:40:46;;;;;;;4.45;3.70;;;;;;;-2.83;100.00;93807.84;2073855;28;20538;-89
2021/10/24 04:41:47;;;;;;;8.70;4.38;;;;;;;-2.81;100.00;93810.16;2076588;28;20026;-90
2021/10/24 04:42:48;;;;;;;5.28;4.15;;;;;;;-2.84;100.00;93813.41;2098034;28;20054;-91
2021/10/24 04:43:49;;;;;;;4.35;3.95;;;;;;;-2.74;100.00;93807.06;2091264;28;20112;-90
2021/10/24 04:44:50;;;;;;;7.88;4.40;;;;;;;-2.84;100.00;93803.72;2081923;28;20384;-91
2021/10/24 04:45:51;;;;;;;5.88;3.95;;;;;;;-2.84;100.00;93813.41;2075584;28;20030;-91
2021/10/24 04:46:52;;;;;;;4.43;3.85;;;;;;;-2.82;100.00;93806.78;2081561;28;20076;-91
2021/10/24 04:47:53;;;;;;;5.43;3.85;;;;;;;-2.93;100.00;93810.06;2081400;28;20053;-90
2021/10/24 04:48:54;;;;;;;4.40;3.53;;;;;;;-2.87;100.00;93808.78;2089947;28;20028;-90
2021/10/24 04:49:55;;;;;;;5.05;3.67;;;;;;;-2.82;100.00;93811.25;2088479;28;20691;-91
2021/10/24 04:50:56;;;;;;;4.65;4.22;;;;;;;-2.76;100.00;93812.63;2081571;28;20026;-90
2021/10/24 04:51:58;;;;;;;4.57;3.40;;;;;;;-2.81;100.00;93808.31;2090783;28;20063;-90
2021/10/24 04:53:04;;;;;;;6.75;4.22;;;;;;;-2.82;100.00;93812.00;2098330;28;20059;-90
2021/10/24 04:54:06;;;;;;;4.95;3.88;;;;;;;-2.99;100.00;93813.91;2104962;28;20036;-91
2021/10/24 04:55:07;;;;;;;4.90;3.78;;;;;;;-2.88;100.00;93808.03;2081691;28;20068;-89
2021/10/24 04:56:08;;;;;;;4.80;3.65;;;;;;;-2.91;100.00;93811.28;2086350;28;20123;-92
2021/10/24 04:57:09;;;;;;;5.65;3.90;;;;;;;-2.73;100.00;93804.13;2081903;28;20032;-90